createdAt,value
2019-03-12T00:00:42.889Z,100950.41
2019-03-12T00:03:15.805Z,100954.98
2019-03-12T00:05:48.639Z,100956.24
2019-03-12T00:08:21.563Z,100957.33
2019-03-12T00:10:54.429Z,100961.59
2019-03-12T00:13:27.515Z,100965.91
2019-03-12T00:16:01.447Z,100964.46
2019-03-12T00:18:34.264Z,100977.12
2019-03-12T00:21:07.082Z,100965.94
2019-03-12T00:23:39.929Z,100979.97
2019-03-12T00:26:12.680Z,100982.27
2019-03-12T00:28:45.560Z,100981.11
2019-03-12T00:31:20.104Z,100980.95
2019-03-12T00:33:52.866Z,100985.11
2019-03-12T00:36:25.742Z,100986.58
2019-03-12T00:38:58.627Z,100987.13
2019-03-12T00:41:31.846Z,100988.92
2019-03-12T00:44:04.676Z,101005.10
2019-03-12T00:46:37.867Z,101012.12
2019-03-12T00:49:10.604Z,101013.56
2019-03-12T00:51:43.326Z,101011.03
2019-03-12T00:54:16.222Z,101016.34
2019-03-12T00:56:49.006Z,101013.33
2019-03-12T00:59:21.733Z,101024.28
2019-03-12T01:01:55.602Z,101031.30
2019-03-12T01:04:28.370Z,101044.30
2019-03-12T01:07:01.102Z,101045.98
2019-03-12T01:09:33.823Z,101047.69
2019-03-12T01:12:06.582Z,101055.34
2019-03-12T01:14:39.387Z,101058.84
2019-03-12T01:17:12.278Z,101064.59
2019-03-12T01:19:45.104Z,101065.96
2019-03-12T01:22:17.889Z,101065.96
2019-03-12T01:24:50.708Z,101066.89
2019-03-12T01:27:23.584Z,101065.66
2019-03-12T01:29:56.283Z,101064.84
2019-03-12T01:32:29.097Z,101072.98
2019-03-12T01:35:01.870Z,101076.95
2019-03-12T01:37:34.768Z,101086.06
2019-03-12T01:40:08.744Z,101086.54
2019-03-12T01:42:41.530Z,101091.19
2019-03-12T01:45:15.854Z,101096.46
2019-03-12T01:47:48.546Z,101095.75
2019-03-12T01:50:21.379Z,101099.72
2019-03-12T01:52:55.647Z,101103.70
2019-03-12T01:55:28.393Z,101108.42
2019-03-12T01:58:01.362Z,101110.95
2019-03-12T02:00:34.528Z,101107.94
2019-03-12T02:03:07.500Z,101120.88
2019-03-12T02:05:40.492Z,101113.78
2019-03-12T02:08:14.389Z,101119.39
2019-03-12T02:10:47.224Z,101125.78
2019-03-12T02:13:20.074Z,101116.05
2019-03-12T02:15:52.795Z,101114.16
2019-03-12T02:18:25.562Z,101127.90
2019-03-12T02:20:58.406Z,101132.58
2019-03-12T02:23:31.123Z,101139.97
2019-03-12T02:26:03.879Z,101137.30
2019-03-12T02:28:36.686Z,101146.39
2019-03-12T02:31:09.501Z,101148.84
2019-03-12T02:33:42.292Z,101146.13
2019-03-12T02:36:15.086Z,101149.14
2019-03-12T02:38:48.008Z,101150.92
2019-03-12T02:41:20.767Z,101150.97
2019-03-12T02:43:53.536Z,101157.91
2019-03-12T02:46:26.431Z,101160.02
2019-03-12T02:48:59.300Z,101170.83
2019-03-12T02:51:32.044Z,101167.97
2019-03-12T02:54:04.789Z,101176.80
2019-03-12T02:56:37.533Z,101178.84
2019-03-12T02:59:11.711Z,101176.11
2019-03-12T03:01:44.580Z,101187.05
2019-03-12T03:04:17.352Z,101188.36
2019-03-12T03:07:03.776Z,101196.56
2019-03-12T03:09:36.570Z,101198.52
2019-03-12T03:12:09.301Z,101203.19
2019-03-12T03:14:42.489Z,101204.20
2019-03-12T03:17:16.553Z,101201.33
2019-03-12T03:19:49.328Z,101202.34
2019-03-12T03:22:22.372Z,101210.80
2019-03-12T03:24:55.188Z,101220.98
2019-03-12T03:27:29.717Z,101234.90
2019-03-12T03:30:02.762Z,101238.67
2019-03-12T03:32:36.662Z,101231.61
2019-03-12T03:35:09.663Z,101237.48
2019-03-12T03:37:42.409Z,101243.68
2019-03-12T03:40:18.808Z,101242.22
2019-03-12T03:42:51.730Z,101244.20
2019-03-12T03:45:24.461Z,101246.14
2019-03-12T03:47:57.160Z,101251.33
2019-03-12T03:50:29.881Z,101252.91
2019-03-12T03:53:02.686Z,101258.09
2019-03-12T03:55:35.724Z,101257.97
2019-03-12T03:58:08.575Z,101262.59
2019-03-12T04:00:41.285Z,101265.50
2019-03-12T04:03:14.020Z,101271.37
2019-03-12T04:05:46.874Z,101274.86
2019-03-12T04:08:19.695Z,101269.09
2019-03-12T04:10:52.527Z,101271.77
2019-03-12T04:13:25.399Z,101278.48
2019-03-12T04:15:58.202Z,101282.45
2019-03-12T04:18:30.997Z,101287.33
2019-03-12T04:21:03.743Z,101288.67
2019-03-12T04:23:36.585Z,101292.11
2019-03-12T04:26:09.415Z,101296.33
2019-03-12T04:28:42.292Z,101296.06
2019-03-12T04:31:15.085Z,101296.01
2019-03-12T04:34:17.693Z,101303.39
2019-03-12T04:36:52.052Z,101301.12
2019-03-12T04:39:24.753Z,101308.33
2019-03-12T04:41:57.625Z,101316.78
2019-03-12T04:44:30.406Z,101316.70
2019-03-12T04:47:03.214Z,101323.59
2019-03-12T04:49:36.095Z,101322.97
2019-03-12T04:52:08.907Z,101330.84
2019-03-12T04:54:41.662Z,101339.75
2019-03-12T04:57:14.597Z,101337.02
2019-03-12T04:59:47.399Z,101341.14
2019-03-12T05:02:20.202Z,101347.31
2019-03-12T05:04:52.962Z,101343.19
2019-03-12T05:07:25.794Z,101348.61
2019-03-12T05:09:58.585Z,101349.59
2019-03-12T05:12:31.282Z,101350.34
2019-03-12T05:15:04.078Z,101349.36
2019-03-12T05:17:38.490Z,101350.02
2019-03-12T05:20:13.643Z,101358.83
2019-03-12T05:22:46.693Z,101367.67
2019-03-12T05:25:19.398Z,101365.34
2019-03-12T05:27:52.110Z,101367.61
2019-03-12T05:30:24.890Z,101365.40
2019-03-12T05:32:57.665Z,101365.70
2019-03-12T05:35:30.473Z,101359.48
2019-03-12T05:38:03.199Z,101365.87
2019-03-12T05:40:35.984Z,101370.56
2019-03-12T05:43:09.828Z,101370.97
2019-03-12T05:45:42.593Z,101372.27
2019-03-12T05:48:15.403Z,101379.02
2019-03-12T05:50:48.141Z,101375.27
2019-03-12T05:53:20.944Z,101379.19
2019-03-12T05:55:53.676Z,101377.23
2019-03-12T05:58:26.542Z,101383.00
2019-03-12T06:00:59.555Z,101381.39
2019-03-12T06:03:32.654Z,101383.64
2019-03-12T06:06:05.592Z,101388.20
2019-03-12T06:08:38.374Z,101395.14
2019-03-12T06:11:11.090Z,101395.81
2019-03-12T06:13:43.870Z,101395.96
2019-03-12T06:16:16.765Z,101396.52
2019-03-12T06:18:49.489Z,101396.09
2019-03-12T06:21:22.490Z,101398.80
2019-03-12T06:23:56.467Z,101396.52
2019-03-12T06:26:29.224Z,101400.91
2019-03-12T06:29:01.946Z,101401.63
2019-03-12T06:31:56.991Z,101406.65
2019-03-12T06:34:43.353Z,101409.38
2019-03-12T06:37:47.336Z,101411.66
2019-03-12T06:40:44.694Z,101412.83
2019-03-12T06:43:24.863Z,101420.57
2019-03-12T06:46:15.310Z,101429.34
2019-03-12T06:49:12.709Z,101421.55
2019-03-12T06:52:05.637Z,101435.47
2019-03-12T06:54:57.356Z,101434.44
2019-03-12T06:57:42.382Z,101431.84
2019-03-12T07:00:40.834Z,101437.53
2019-03-12T07:03:25.181Z,101435.55
2019-03-12T07:06:32.193Z,101447.15
2019-03-12T07:09:27.339Z,101443.07
2019-03-12T07:12:19.362Z,101446.25
2019-03-12T07:15:13.866Z,101438.67
2019-03-12T07:18:20.887Z,101444.39
2019-03-12T07:21:04.531Z,101439.09
2019-03-12T07:24:13.148Z,101447.80
2019-03-12T07:27:11.099Z,101434.10
2019-03-12T07:30:08.737Z,101448.70
2019-03-12T07:32:57.029Z,101451.87
2019-03-12T07:35:51.680Z,101462.29
2019-03-12T07:38:36.268Z,101463.72
2019-03-12T07:41:31.962Z,101459.47
2019-03-12T07:44:26.902Z,101460.68
2019-03-12T07:47:11.213Z,101461.17
2019-03-12T07:50:01.192Z,101449.30
2019-03-12T07:52:45.972Z,101452.64
2019-03-12T07:55:46.475Z,101453.27
2019-03-12T07:58:46.954Z,101444.39
2019-03-12T08:01:36.166Z,101446.48
2019-03-12T08:04:33.935Z,101445.41
2019-03-12T08:07:31.203Z,101437.50
2019-03-12T08:10:28.807Z,101444.87
2019-03-12T08:13:20.492Z,101447.63
2019-03-12T08:16:07.891Z,101459.87
2019-03-12T08:18:52.901Z,101457.14
2019-03-12T08:21:49.914Z,101471.44
2019-03-12T08:24:44.425Z,101475.17
2019-03-12T08:27:34.623Z,101468.09
2019-03-12T08:30:34.271Z,101466.07
2019-03-12T08:33:24.743Z,101468.67
2019-03-12T08:36:19.537Z,101482.56
2019-03-12T08:39:00.202Z,101474.16
2019-03-12T08:41:50.583Z,101475.98
2019-03-12T08:44:51.513Z,101478.42
2019-03-12T08:47:48.849Z,101473.16
2019-03-12T08:50:43.550Z,101476.29
2019-03-12T08:53:22.493Z,101481.98
2019-03-12T08:56:22.497Z,101472.69
2019-03-12T08:59:17.058Z,101476.14
2019-03-12T09:02:24.814Z,101472.36
2019-03-12T09:05:06.648Z,101467.59
2019-03-12T09:07:49.232Z,101470.08
2019-03-12T09:10:36.966Z,101468.72
2019-03-12T09:13:48.258Z,101470.14
2019-03-12T09:16:39.832Z,101469.52
2019-03-12T09:19:23.572Z,101469.60
2019-03-12T09:22:33.628Z,101467.08
2019-03-12T09:25:25.420Z,101467.68
2019-03-12T09:28:30.322Z,101462.82
2019-03-12T09:31:24.767Z,101458.48
2019-03-12T09:34:28.621Z,101467.38
2019-03-12T09:37:38.408Z,101459.39
2019-03-12T09:40:29.707Z,101466.35
2019-03-12T09:43:20.158Z,101448.94
2019-03-12T09:46:10.590Z,101442.27
2019-03-12T09:49:00.944Z,101442.06
2019-03-12T09:51:55.563Z,101441.16
2019-03-12T09:54:50.205Z,101437.58
2019-03-12T09:57:47.678Z,101439.45
2019-03-12T10:00:39.245Z,101433.10
2019-03-12T10:03:29.142Z,101440.69
2019-03-12T10:06:12.706Z,101434.92
2019-03-12T10:08:57.561Z,101435.19
2019-03-12T10:11:52.043Z,101435.91
2019-03-12T10:15:02.108Z,101435.28
2019-03-12T10:18:02.884Z,101432.44
2019-03-12T10:20:58.496Z,101433.30
2019-03-12T10:23:59.091Z,101424.40
2019-03-12T10:26:56.694Z,101424.15
2019-03-12T10:29:45.051Z,101418.67
2019-03-12T10:32:28.575Z,101413.64
2019-03-12T10:35:09.103Z,101421.66
2019-03-12T10:38:06.716Z,101414.72
2019-03-12T10:41:08.509Z,101419.20
2019-03-12T10:43:48.005Z,101417.24
2019-03-12T10:46:54.993Z,101416.06
2019-03-12T10:49:37.447Z,101422.59
2019-03-12T10:52:03.183Z,101417.35
2019-03-12T10:54:36.032Z,101415.92
2019-03-12T10:57:08.863Z,101409.36
2019-03-12T10:59:41.832Z,101406.81
2019-03-12T11:02:14.603Z,101412.52
2019-03-12T11:04:47.478Z,101407.86
2019-03-12T11:07:20.252Z,101407.29
2019-03-12T11:09:53.193Z,101397.19
2019-03-12T11:12:26.472Z,101392.50
2019-03-12T11:14:59.382Z,101385.68
2019-03-12T11:17:32.235Z,101381.97
2019-03-12T11:20:05.663Z,101376.88
2019-03-12T11:22:38.659Z,101373.33
2019-03-12T11:25:11.583Z,101367.06
2019-03-12T11:27:44.519Z,101368.83
2019-03-12T11:30:17.978Z,101359.16
2019-03-12T11:32:50.731Z,101367.53
2019-03-12T11:35:23.507Z,101362.84
2019-03-12T11:37:59.174Z,101358.56
2019-03-12T11:40:32.990Z,101360.80
2019-03-12T11:43:06.314Z,101361.00
2019-03-12T11:45:39.437Z,101351.34
2019-03-12T11:48:13.565Z,101342.44
2019-03-12T11:50:46.770Z,101343.80
2019-03-12T11:53:19.743Z,101348.86
2019-03-12T11:55:52.530Z,101338.93
2019-03-12T11:58:25.406Z,101334.23
2019-03-12T12:01:03.706Z,101324.91
2019-03-12T12:03:37.010Z,101326.48
2019-03-12T12:06:12.888Z,101325.26
2019-03-12T12:08:45.659Z,101325.52
2019-03-12T12:11:19.572Z,101316.75
2019-03-12T12:13:52.359Z,101315.81
2019-03-12T12:16:25.170Z,101312.06
2019-03-12T12:18:58.069Z,101309.73
2019-03-12T12:21:30.936Z,101311.86
2019-03-12T12:24:03.779Z,101307.87
2019-03-12T12:26:36.591Z,101304.19
2019-03-12T12:29:09.319Z,101307.80
2019-03-12T12:31:42.208Z,101314.84
2019-03-12T12:34:17.348Z,101302.41
2019-03-12T12:36:50.100Z,101301.56
2019-03-12T12:39:23.944Z,101298.66
2019-03-12T12:41:56.889Z,101302.11
2019-03-12T12:44:30.734Z,101290.52
2019-03-12T12:47:03.552Z,101290.94
2019-03-12T12:49:36.365Z,101286.41
2019-03-12T12:52:09.234Z,101292.06
2019-03-12T12:54:42.117Z,101284.27
2019-03-12T12:57:14.947Z,101273.61
2019-03-12T12:59:47.782Z,101274.50
2019-03-12T13:02:20.621Z,101272.85
2019-03-12T13:04:53.317Z,101265.95
2019-03-12T13:07:26.277Z,101262.67
2019-03-12T13:09:59.089Z,101259.56
2019-03-12T13:12:31.967Z,101254.45
2019-03-12T13:15:05.148Z,101239.86
2019-03-12T13:17:38.100Z,101236.09
2019-03-12T13:20:12.155Z,101235.95
2019-03-12T13:23:10.851Z,101227.13
2019-03-12T13:25:43.633Z,101211.38
2019-03-12T13:28:20.049Z,101216.73
2019-03-12T13:30:52.846Z,101218.23
2019-03-12T13:33:25.846Z,101217.02
2019-03-12T13:35:58.706Z,101219.69
2019-03-12T13:38:44.821Z,101217.86
2019-03-12T13:41:06.217Z,101227.11
2019-03-12T13:43:39.105Z,101218.25
2019-03-12T13:46:12.006Z,101217.69
2019-03-12T13:48:44.848Z,101209.25
2019-03-12T13:51:17.719Z,101217.53
2019-03-12T13:53:52.588Z,101207.88
2019-03-12T13:56:25.392Z,101210.81
2019-03-12T13:58:58.218Z,101210.92
2019-03-12T14:01:31.191Z,101208.19
2019-03-12T14:04:10.417Z,101210.97
2019-03-12T14:06:38.656Z,101205.12
2019-03-12T14:09:11.393Z,101207.67
2019-03-12T14:11:46.026Z,101200.59
2019-03-12T14:14:18.817Z,101200.88
2019-03-12T14:16:51.945Z,101194.91
2019-03-12T14:19:24.957Z,101192.42
2019-03-12T14:21:58.060Z,101192.58
2019-03-12T14:24:30.849Z,101186.08
2019-03-12T14:27:03.367Z,101175.09
2019-03-12T14:29:36.200Z,101167.88
2019-03-12T14:32:11.908Z,101157.22
2019-03-12T14:34:43.663Z,101159.95
2019-03-12T14:37:16.556Z,101156.75
2019-03-12T14:39:49.345Z,101150.70
2019-03-12T14:42:22.233Z,101152.88
2019-03-12T14:44:54.974Z,101153.33
2019-03-12T14:47:27.790Z,101140.56
2019-03-12T14:50:00.668Z,101139.25
2019-03-12T14:52:39.657Z,101130.02
2019-03-12T14:55:12.629Z,101128.98
2019-03-12T14:57:45.552Z,101121.55
2019-03-12T15:00:25.422Z,101115.48
2019-03-12T15:02:57.897Z,101107.25
2019-03-12T15:05:30.841Z,101110.66
2019-03-12T15:08:04.951Z,101104.52
2019-03-12T15:10:37.798Z,101112.29
2019-03-12T15:13:10.855Z,101096.52
2019-03-12T15:15:43.734Z,101090.30
2019-03-12T15:18:16.922Z,101082.95
2019-03-12T15:20:50.091Z,101080.39
2019-03-12T15:23:23.072Z,101080.34
2019-03-12T15:25:55.990Z,101069.30
2019-03-12T15:28:28.965Z,101064.81
2019-03-12T15:31:02.465Z,101060.16
2019-03-12T15:33:35.991Z,101067.71
2019-03-12T15:36:08.818Z,101068.91
2019-03-12T15:38:41.581Z,101062.74
2019-03-12T15:41:14.490Z,101058.70
2019-03-12T15:43:47.299Z,101047.66
2019-03-12T15:46:20.788Z,101041.03
2019-03-12T15:48:54.725Z,101032.65
2019-03-12T15:51:27.591Z,101027.73
2019-03-12T15:54:00.322Z,101024.69
2019-03-12T15:56:33.208Z,101014.13
2019-03-12T15:59:05.996Z,101016.75
2019-03-12T16:01:39.049Z,101005.33
2019-03-12T16:04:11.996Z,101003.93
2019-03-12T16:06:45.947Z,100994.24
2019-03-12T16:09:19.192Z,100988.50
2019-03-12T16:11:52.224Z,100986.19
2019-03-12T16:14:25.031Z,100979.13
2019-03-12T16:16:58.035Z,100980.80
2019-03-12T16:19:30.773Z,100979.40
2019-03-12T16:22:03.702Z,100971.07
2019-03-12T16:24:36.467Z,100971.44
2019-03-12T16:27:09.313Z,100966.91
2019-03-12T16:29:42.286Z,100960.26
2019-03-12T16:32:15.185Z,100956.64
2019-03-12T16:34:48.082Z,100957.73
2019-03-12T16:37:27.896Z,100953.19
2019-03-12T16:40:00.783Z,100959.08
2019-03-12T16:42:35.277Z,100955.93
2019-03-12T16:45:09.554Z,100951.48
2019-03-12T16:47:42.435Z,100946.61
2019-03-12T16:50:16.287Z,100943.84
2019-03-12T16:52:49.077Z,100948.12
2019-03-12T16:55:22.009Z,100947.48
2019-03-12T16:57:54.785Z,100946.52
2019-03-12T17:00:27.942Z,100938.52
2019-03-12T17:03:00.826Z,100941.44
2019-03-12T17:05:33.853Z,100943.11
2019-03-12T17:08:06.825Z,100938.17
2019-03-12T17:10:39.672Z,100940.25
2019-03-12T17:13:14.029Z,100934.90
2019-03-12T17:15:47.030Z,100933.44
2019-03-12T17:18:19.991Z,100930.70
2019-03-12T17:20:52.831Z,100924.53
2019-03-12T17:23:26.501Z,100920.12
2019-03-12T17:25:59.875Z,100921.72
2019-03-12T17:28:32.702Z,100916.87
2019-03-12T17:31:05.660Z,100912.89
2019-03-12T17:33:38.421Z,100910.70
2019-03-12T17:36:11.372Z,100906.30
2019-03-12T17:38:46.934Z,100900.97
2019-03-12T17:41:18.779Z,100894.78
2019-03-12T17:43:51.647Z,100897.81
2019-03-12T17:46:24.885Z,100898.23
2019-03-12T17:48:57.643Z,100885.96
2019-03-12T17:51:30.643Z,100886.38
2019-03-12T17:54:03.774Z,100880.69
2019-03-12T17:56:36.764Z,100878.50
2019-03-12T17:59:09.634Z,100867.63
2019-03-12T18:01:42.680Z,100870.18
2019-03-12T18:04:15.553Z,100861.88
2019-03-12T18:06:48.327Z,100859.63
2019-03-12T18:09:21.080Z,100852.20
2019-03-12T18:11:54.034Z,100851.68
2019-03-12T18:14:26.903Z,100849.36
2019-03-12T18:16:59.795Z,100842.70
2019-03-12T18:19:32.499Z,100844.73
2019-03-12T18:22:05.323Z,100831.56
2019-03-12T18:24:38.132Z,100831.05
2019-03-12T18:27:10.968Z,100827.89
2019-03-12T18:29:43.798Z,100823.45
2019-03-12T18:32:16.624Z,100821.66
2019-03-12T18:34:49.439Z,100817.69
2019-03-12T18:37:22.279Z,100816.72
2019-03-12T18:39:55.217Z,100812.39
2019-03-12T18:42:28.196Z,100807.13
2019-03-12T18:45:01.127Z,100801.86
2019-03-12T18:47:34.159Z,100799.66
2019-03-12T18:50:08.460Z,100791.37
2019-03-12T18:52:42.525Z,100788.34
2019-03-12T18:55:45.856Z,100782.64
2019-03-12T18:58:18.610Z,100780.39
2019-03-12T19:00:51.575Z,100784.25
2019-03-12T19:03:24.513Z,100787.27
2019-03-12T19:05:58.552Z,100784.61
2019-03-12T19:08:31.429Z,100779.84
2019-03-12T19:11:06.475Z,100782.40
2019-03-12T19:13:41.497Z,100775.47
2019-03-12T19:16:14.453Z,100777.19
2019-03-12T19:18:47.467Z,100769.78
2019-03-12T19:21:20.462Z,100765.45
2019-03-12T19:23:53.261Z,100758.11
2019-03-12T19:26:26.305Z,100756.83
2019-03-12T19:28:59.039Z,100746.03
2019-03-12T19:31:33.759Z,100740.45
2019-03-12T19:34:11.044Z,100730.50
2019-03-12T19:36:44.080Z,100725.77
2019-03-12T19:39:18.402Z,100722.34
2019-03-12T19:41:51.350Z,100718.06
2019-03-12T19:44:25.260Z,100711.61
2019-03-12T19:46:58.280Z,100706.92
2019-03-12T19:49:31.083Z,100692.17
2019-03-12T19:52:03.914Z,100688.84
2019-03-12T19:54:36.912Z,100683.67
2019-03-12T19:57:09.941Z,100675.08
2019-03-12T19:59:42.762Z,100664.23
2019-03-12T20:02:17.529Z,100666.89
2019-03-12T20:04:50.467Z,100662.58
2019-03-12T20:07:23.423Z,100652.55
2019-03-12T20:10:51.442Z,100644.72
2019-03-12T20:14:41.090Z,100641.59
2019-03-12T20:18:16.208Z,100639.36
2019-03-12T20:22:10.217Z,100624.13
2019-03-12T20:25:30.205Z,100619.38
2019-03-12T20:29:27.429Z,100609.37
2019-03-12T20:33:00.081Z,100601.96
2019-03-12T20:36:39.772Z,100589.75
2019-03-12T20:40:36.867Z,100584.48
2019-03-12T20:44:31.912Z,100569.14
2019-03-12T20:48:09.753Z,100563.39
2019-03-12T20:51:59.315Z,100553.81
2019-03-12T20:55:41.222Z,100549.89
2019-03-12T20:59:16.440Z,100546.35
2019-03-12T21:03:03.208Z,100538.44
2019-03-12T21:06:29.624Z,100522.36
2019-03-12T21:10:01.094Z,100514.12
2019-03-12T21:13:34.620Z,100494.58
2019-03-12T21:16:43.614Z,100493.33
2019-03-12T21:20:21.522Z,100483.78
2019-03-12T21:23:48.318Z,100485.50
2019-03-12T21:27:11.093Z,100476.38
2019-03-12T21:29:45.522Z,100460.67
2019-03-12T21:32:19.547Z,100452.81
2019-03-12T21:34:52.454Z,100445.45
2019-03-12T21:37:25.304Z,100431.12
2019-03-12T21:39:58.166Z,100422.41
2019-03-12T21:42:31.163Z,100415.43
2019-03-12T21:45:04.597Z,100412.41
2019-03-12T21:47:37.758Z,100404.62
2019-03-12T21:50:10.804Z,100391.59
2019-03-12T21:52:43.582Z,100386.80
2019-03-12T21:55:16.345Z,100378.52
2019-03-12T21:57:49.184Z,100368.47
2019-03-12T22:00:22.253Z,100362.87
2019-03-12T22:02:55.216Z,100359.38
2019-03-12T22:05:28.040Z,100342.35
2019-03-12T22:08:00.888Z,100340.21
2019-03-12T22:10:33.749Z,100337.14
2019-03-12T22:13:06.827Z,100325.41
2019-03-12T22:15:39.759Z,100318.47
2019-03-12T22:18:12.662Z,100312.33
2019-03-12T22:20:45.511Z,100310.60
2019-03-12T22:23:27.826Z,100298.03
2019-03-12T22:26:00.690Z,100297.11
2019-03-12T22:28:33.475Z,100288.48
2019-03-12T22:31:06.447Z,100278.91
2019-03-12T22:33:39.167Z,100274.58
2019-03-12T22:36:11.993Z,100262.84
2019-03-12T22:38:44.903Z,100255.91
2019-03-12T22:41:17.642Z,100250.70
2019-03-12T22:43:50.486Z,100241.12
2019-03-12T22:46:23.484Z,100234.59
2019-03-12T22:48:56.388Z,100240.83
2019-03-12T22:51:29.264Z,100230.83
2019-03-12T22:54:02.622Z,100230.87
2019-03-12T22:56:35.720Z,100220.48
2019-03-12T22:59:10.031Z,100213.08
2019-03-12T23:02:00.502Z,100203.58
2019-03-12T23:04:50.951Z,100193.56
2019-03-12T23:07:41.644Z,100190.92
2019-03-12T23:10:17.401Z,100185.33
2019-03-12T23:12:51.888Z,100188.83
2019-03-12T23:15:25.219Z,100184.48
2019-03-12T23:17:58.900Z,100179.73
2019-03-12T23:20:32.689Z,100167.13
2019-03-12T23:23:07.138Z,100170.16
2019-03-12T23:25:40.120Z,100156.69
2019-03-12T23:28:13.400Z,100163.63
2019-03-12T23:30:46.549Z,100156.61
2019-03-12T23:33:19.379Z,100149.67
2019-03-12T23:35:52.215Z,100146.61
2019-03-12T23:38:25.069Z,100130.05
2019-03-12T23:40:59.096Z,100118.31
2019-03-12T23:43:31.923Z,100111.37
2019-03-12T23:46:04.836Z,100116.13
2019-03-12T23:48:37.861Z,100104.82
2019-03-12T23:51:10.829Z,100108.31
2019-03-12T23:53:43.726Z,100098.72
2019-03-12T23:56:16.705Z,100094.78
2019-03-12T23:58:49.601Z,100084.35
